createdAt,value
2023-02-19T00:01:48.249Z,101079.31
2023-02-19T00:04:19.296Z,101083.03
2023-02-19T00:06:50.115Z,101093.00
2023-02-19T00:09:19.397Z,101091.31
2023-02-19T00:11:47.834Z,101083.34
2023-02-19T00:14:20.742Z,101078.78
2023-02-19T00:16:50.529Z,101072.44
2023-02-19T00:19:21.833Z,101065.75
2023-02-19T00:21:52.654Z,101067.75
2023-02-19T00:24:22.704Z,101073.41
2023-02-19T00:26:50.132Z,101077.94
2023-02-19T00:29:20.777Z,101071.09
2023-02-19T00:31:48.023Z,101063.88
2023-02-19T00:34:15.293Z,101059.03
2023-02-19T00:36:44.622Z,101063.19
2023-02-19T00:39:22.038Z,101051.41
2023-02-19T00:41:53.410Z,101045.44
2023-02-19T00:44:22.918Z,101042.44
2023-02-19T00:46:49.869Z,101046.25
2023-02-19T00:49:21.993Z,101040.88
2023-02-19T00:51:51.027Z,101044.16
2023-02-19T00:54:22.697Z,101050.09
2023-02-19T00:56:50.412Z,101055.78
2023-02-19T00:59:19.814Z,101057.81
2023-02-19T01:01:46.835Z,101065.47
2023-02-19T01:04:13.959Z,101068.59
2023-02-19T01:06:41.378Z,101073.44
2023-02-19T01:09:08.456Z,101061.50
2023-02-19T01:11:38.141Z,101060.09
2023-02-19T01:14:05.228Z,101057.38
2023-02-19T01:16:32.739Z,101065.47
2023-02-19T01:19:00.017Z,101061.66
2023-02-19T01:21:29.176Z,101059.78
2023-02-19T01:23:56.960Z,101067.03
2023-02-19T01:26:32.321Z,101066.59
2023-02-19T01:29:07.376Z,101064.91
2023-02-19T01:31:38.890Z,101063.03
2023-02-19T01:34:08.837Z,101073.69
2023-02-19T01:36:37.315Z,101071.16
2023-02-19T01:39:08.916Z,101071.72
2023-02-19T01:41:39.472Z,101068.03
2023-02-19T01:44:12.477Z,101071.72
2023-02-19T01:46:42.321Z,101074.13
2023-02-19T01:49:24.303Z,101071.44
2023-02-19T01:52:21.234Z,101080.94
2023-02-19T01:54:50.246Z,101077.13
2023-02-19T01:57:28.457Z,101078.97
2023-02-19T02:00:04.053Z,101082.06
2023-02-19T02:02:33.391Z,101071.72
2023-02-19T02:05:01.803Z,101074.00
2023-02-19T02:07:47.488Z,101072.16
2023-02-19T02:10:20.640Z,101067.91
2023-02-19T02:12:50.165Z,101070.03
2023-02-19T02:15:18.308Z,101064.91
2023-02-19T02:17:53.279Z,101060.09
2023-02-19T02:20:51.254Z,101064.78
2023-02-19T02:24:12.548Z,101062.63
2023-02-19T02:27:06.420Z,101056.53
2023-02-19T02:30:01.112Z,101052.41
2023-02-19T02:32:53.362Z,101055.69
2023-02-19T02:35:33.742Z,101063.34
2023-02-19T02:38:08.489Z,101056.66
2023-02-19T02:40:37.996Z,101053.25
2023-02-19T02:43:04.906Z,101057.53
2023-02-19T02:45:40.007Z,101056.50
2023-02-19T02:48:19.605Z,101063.38
2023-02-19T02:51:26.548Z,101068.00
2023-02-19T02:54:33.570Z,101074.25
2023-02-19T02:57:03.930Z,101073.13
2023-02-19T02:59:37.656Z,101073.72
2023-02-19T03:02:25.171Z,101080.25
2023-02-19T03:05:19.298Z,101080.06
2023-02-19T03:08:10.648Z,101090.13
2023-02-19T03:10:54.864Z,101075.66
2023-02-19T03:14:00.617Z,101081.84
2023-02-19T03:16:52.998Z,101082.22
2023-02-19T03:19:24.315Z,101083.78
2023-02-19T03:21:59.649Z,101086.28
2023-02-19T03:24:55.045Z,101089.84
2023-02-19T03:27:23.760Z,101083.31
2023-02-19T03:29:57.658Z,101097.25
2023-02-19T03:32:40.294Z,101110.06
2023-02-19T03:35:16.338Z,101108.53
2023-02-19T03:37:59.704Z,101097.63
2023-02-19T03:40:31.308Z,101103.13
2023-02-19T03:43:30.107Z,101102.47
2023-02-19T03:46:11.897Z,101104.72
2023-02-19T03:49:16.300Z,101116.84
2023-02-19T03:51:55.045Z,101118.63
2023-02-19T03:55:06.846Z,101118.63
2023-02-19T03:57:43.498Z,101127.59
2023-02-19T04:00:31.540Z,101129.59
2023-02-19T04:03:31.681Z,101131.94
2023-02-19T04:06:30.270Z,101127.94
2023-02-19T04:09:01.494Z,101132.38
2023-02-19T04:11:30.727Z,101130.66
2023-02-19T04:14:29.605Z,101138.94
2023-02-19T04:17:04.323Z,101147.25
2023-02-19T04:19:35.902Z,101148.22
2023-02-19T04:22:06.610Z,101141.84
2023-02-19T04:24:49.038Z,101142.47
2023-02-19T04:27:16.749Z,101151.44
2023-02-19T04:29:44.357Z,101146.75
2023-02-19T04:32:13.055Z,101153.63
2023-02-19T04:34:40.719Z,101157.44
2023-02-19T04:37:08.082Z,101153.91
2023-02-19T04:39:35.480Z,101161.56
2023-02-19T04:42:05.495Z,101163.00
2023-02-19T04:44:34.631Z,101168.53
2023-02-19T04:47:01.833Z,101176.22
2023-02-19T04:49:29.004Z,101176.34
2023-02-19T04:52:00.769Z,101188.38
2023-02-19T04:54:29.860Z,101190.94
2023-02-19T04:56:57.626Z,101188.97
2023-02-19T04:59:27.527Z,101188.28
2023-02-19T05:01:59.028Z,101194.44
2023-02-19T05:04:26.458Z,101192.13
2023-02-19T05:06:55.596Z,101211.25
2023-02-19T05:09:22.531Z,101212.50
2023-02-19T05:11:49.596Z,101207.25
2023-02-19T05:14:17.305Z,101210.31
2023-02-19T05:16:44.217Z,101209.31
2023-02-19T05:19:14.593Z,101206.09
2023-02-19T05:21:41.609Z,101208.72
2023-02-19T05:24:12.070Z,101216.16
2023-02-19T05:26:39.090Z,101219.72
2023-02-19T05:29:06.110Z,101219.13
2023-02-19T05:31:36.198Z,101215.78
2023-02-19T05:34:03.433Z,101221.69
2023-02-19T05:36:32.950Z,101218.03
2023-02-19T05:39:02.411Z,101216.50
2023-02-19T05:41:30.470Z,101224.66
2023-02-19T05:43:58.447Z,101227.09
2023-02-19T05:46:29.608Z,101222.03
2023-02-19T05:48:58.334Z,101233.09
2023-02-19T05:51:27.462Z,101236.34
2023-02-19T05:53:55.736Z,101239.88
2023-02-19T05:56:32.781Z,101240.88
2023-02-19T05:59:03.950Z,101247.28
2023-02-19T06:01:36.689Z,101251.13
2023-02-19T06:04:03.864Z,101252.16
2023-02-19T06:06:30.866Z,101258.63
2023-02-19T06:08:58.198Z,101264.63
2023-02-19T06:11:25.588Z,101269.66
2023-02-19T06:13:52.526Z,101274.78
2023-02-19T06:16:22.206Z,101285.59
2023-02-19T06:18:49.745Z,101285.13
2023-02-19T06:21:34.444Z,101301.72
2023-02-19T06:24:11.356Z,101304.91
2023-02-19T06:26:38.835Z,101310.06
2023-02-19T06:29:05.703Z,101308.59
2023-02-19T06:31:32.785Z,101321.19
2023-02-19T06:34:03.767Z,101321.53
2023-02-19T06:36:31.333Z,101319.72
2023-02-19T06:39:02.347Z,101329.13
2023-02-19T06:41:32.312Z,101334.88
2023-02-19T06:43:59.213Z,101339.28
2023-02-19T06:46:26.717Z,101350.16
2023-02-19T06:48:53.727Z,101356.50
2023-02-19T06:51:26.376Z,101368.25
2023-02-19T06:53:53.747Z,101380.94
2023-02-19T06:56:29.472Z,101385.38
2023-02-19T06:59:05.008Z,101388.06
2023-02-19T07:01:34.767Z,101380.72
2023-02-19T07:04:04.754Z,101393.44
2023-02-19T07:06:37.813Z,101387.66
2023-02-19T07:09:06.890Z,101396.59
2023-02-19T07:11:36.388Z,101403.72
2023-02-19T07:14:07.668Z,101410.09
2023-02-19T07:16:38.993Z,101408.84
2023-02-19T07:19:08.196Z,101411.28
2023-02-19T07:21:37.709Z,101417.22
2023-02-19T07:24:05.820Z,101418.44
2023-02-19T07:26:33.096Z,101421.13
2023-02-19T07:29:00.753Z,101426.97
2023-02-19T07:31:28.867Z,101427.53
2023-02-19T07:33:56.251Z,101442.50
2023-02-19T07:36:25.666Z,101435.47
2023-02-19T07:38:59.774Z,101452.22
2023-02-19T07:41:29.204Z,101458.09
2023-02-19T07:43:56.212Z,101458.03
2023-02-19T07:46:26.913Z,101466.69
2023-02-19T07:48:55.870Z,101476.38
2023-02-19T07:51:24.262Z,101487.88
2023-02-19T07:53:52.022Z,101483.19
2023-02-19T07:56:19.987Z,101492.81
2023-02-19T07:58:49.100Z,101485.53
2023-02-19T08:01:44.215Z,101485.56
2023-02-19T08:04:14.555Z,101493.34
2023-02-19T08:06:43.109Z,101505.22
2023-02-19T08:09:10.845Z,101509.03
2023-02-19T08:11:56.756Z,101514.28
2023-02-19T08:14:30.495Z,101524.09
2023-02-19T08:16:57.495Z,101531.53
2023-02-19T08:19:26.913Z,101520.34
2023-02-19T08:21:53.871Z,101534.22
2023-02-19T08:24:20.794Z,101532.06
2023-02-19T08:26:50.428Z,101537.50
2023-02-19T08:29:17.370Z,101533.22
2023-02-19T08:31:46.475Z,101534.09
2023-02-19T08:34:13.493Z,101529.31
2023-02-19T08:36:40.406Z,101529.84
2023-02-19T08:39:07.360Z,101537.72
2023-02-19T08:41:36.793Z,101544.94
2023-02-19T08:44:06.307Z,101549.81
2023-02-19T08:46:34.419Z,101548.50
2023-02-19T08:49:01.480Z,101542.38
2023-02-19T08:51:31.408Z,101538.34
2023-02-19T08:53:58.294Z,101543.34
2023-02-19T08:56:25.306Z,101552.06
2023-02-19T08:58:54.635Z,101555.91
2023-02-19T09:01:24.092Z,101563.38
2023-02-19T09:03:53.542Z,101563.47
2023-02-19T09:06:21.456Z,101576.66
2023-02-19T09:08:51.347Z,101585.81
2023-02-19T09:11:18.306Z,101586.09
2023-02-19T09:13:45.424Z,101589.22
2023-02-19T09:16:12.369Z,101585.31
2023-02-19T09:18:39.702Z,101586.31
2023-02-19T09:21:09.934Z,101600.84
2023-02-19T09:23:39.781Z,101603.41
2023-02-19T09:26:10.042Z,101616.84
2023-02-19T09:28:41.784Z,101615.44
2023-02-19T09:31:17.011Z,101625.81
2023-02-19T09:33:48.589Z,101627.28
2023-02-19T09:36:16.843Z,101646.66
2023-02-19T09:38:48.692Z,101624.50
2023-02-19T09:41:34.168Z,101634.53
2023-02-19T09:44:09.271Z,101627.63
2023-02-19T09:46:47.252Z,101625.16
2023-02-19T09:49:17.494Z,101619.22
2023-02-19T09:52:12.147Z,101621.88
2023-02-19T09:54:40.679Z,101641.16
2023-02-19T09:57:18.090Z,101648.03
2023-02-19T09:59:57.147Z,101655.06
2023-02-19T10:02:25.810Z,101661.53
2023-02-19T10:04:53.804Z,101654.66
2023-02-19T10:07:35.909Z,101657.75
2023-02-19T10:10:14.718Z,101644.44
2023-02-19T10:12:50.617Z,101658.09
2023-02-19T10:15:57.788Z,101662.50
2023-02-19T10:18:28.474Z,101678.41
2023-02-19T10:21:01.340Z,101688.75
2023-02-19T10:23:33.899Z,101690.47
2023-02-19T10:26:01.120Z,101686.78
2023-02-19T10:28:35.673Z,101705.72
2023-02-19T10:31:11.870Z,101716.06
2023-02-19T10:33:57.378Z,101719.06
2023-02-19T10:36:33.671Z,101726.75
2023-02-19T10:39:30.546Z,101722.66
2023-02-19T10:41:58.802Z,101730.84
2023-02-19T10:44:38.454Z,101725.31
2023-02-19T10:47:15.967Z,101728.47
2023-02-19T10:49:46.518Z,101723.25
2023-02-19T10:52:24.385Z,101725.38
2023-02-19T10:54:58.431Z,101728.16
2023-02-19T10:57:34.191Z,101716.91
2023-02-19T11:00:22.684Z,101732.88
2023-02-19T11:03:16.287Z,101728.66
2023-02-19T11:06:02.811Z,101725.47
2023-02-19T11:08:31.003Z,101729.50
2023-02-19T11:10:58.100Z,101742.16
2023-02-19T11:13:39.797Z,101731.16
2023-02-19T11:16:10.887Z,101744.44
2023-02-19T11:18:39.248Z,101750.94
2023-02-19T11:21:08.194Z,101764.38
2023-02-19T11:23:44.485Z,101765.13
2023-02-19T11:26:27.054Z,101765.34
2023-02-19T11:29:02.889Z,101762.03
2023-02-19T11:31:36.122Z,101762.53
2023-02-19T11:34:21.326Z,101758.06
2023-02-19T11:37:18.499Z,101760.47
2023-02-19T11:39:51.268Z,101755.09
2023-02-19T11:42:43.315Z,101751.22
2023-02-19T11:45:22.614Z,101750.44
2023-02-19T11:48:05.385Z,101744.88
2023-02-19T11:50:46.502Z,101758.66
2023-02-19T11:53:30.910Z,101776.41
2023-02-19T11:56:19.291Z,101768.72
2023-02-19T11:58:47.426Z,101776.25
2023-02-19T12:01:26.834Z,101775.06
2023-02-19T12:04:24.782Z,101777.41
2023-02-19T12:07:23.071Z,101765.97
2023-02-19T12:10:14.998Z,101768.25
2023-02-19T12:13:25.365Z,101776.56
2023-02-19T12:18:58.612Z,101775.81
2023-02-19T12:21:39.985Z,101767.94
2023-02-19T12:24:55.850Z,101767.94
2023-02-19T12:27:46.801Z,101775.31
2023-02-19T12:30:35.985Z,101786.25
2023-02-19T12:33:25.087Z,101781.88
2023-02-19T12:35:54.873Z,101779.50
2023-02-19T12:38:35.403Z,101787.03
2023-02-19T12:41:44.745Z,101781.94
2023-02-19T12:44:18.725Z,101794.13
2023-02-19T12:46:55.657Z,101791.13
2023-02-19T12:49:46.872Z,101802.53
2023-02-19T12:52:26.074Z,101798.81
2023-02-19T12:55:03.509Z,101799.16
2023-02-19T12:57:34.952Z,101798.97
2023-02-19T13:00:13.846Z,101790.81
2023-02-19T13:02:48.803Z,101801.13
2023-02-19T13:05:39.883Z,101802.25
2023-02-19T13:08:27.688Z,101804.16
2023-02-19T13:11:03.473Z,101802.66
2023-02-19T13:14:00.231Z,101797.53
2023-02-19T13:16:33.495Z,101790.16
2023-02-19T13:19:03.990Z,101790.75
2023-02-19T13:21:53.336Z,101793.25
2023-02-19T13:24:36.539Z,101780.72
2023-02-19T13:27:21.412Z,101780.94
2023-02-19T13:30:21.830Z,101773.00
2023-02-19T13:33:27.072Z,101779.78
2023-02-19T13:36:12.045Z,101766.94
2023-02-19T13:38:45.837Z,101772.03
2023-02-19T13:41:31.860Z,101766.00
2023-02-19T13:44:17.937Z,101769.06
2023-02-19T13:46:50.318Z,101782.03
2023-02-19T13:49:31.713Z,101772.56
2023-02-19T13:52:04.535Z,101767.78
2023-02-19T13:54:40.259Z,101762.81
2023-02-19T13:57:23.931Z,101757.44
2023-02-19T13:59:52.537Z,101771.41
2023-02-19T14:02:34.168Z,101773.25
2023-02-19T14:05:13.346Z,101770.03
2023-02-19T14:07:55.872Z,101772.91
2023-02-19T14:10:57.976Z,101795.22
2023-02-19T14:13:51.965Z,101783.78
2023-02-19T14:17:08.089Z,101785.25
2023-02-19T14:19:58.055Z,101792.59
2023-02-19T14:22:52.579Z,101789.19
2023-02-19T14:25:46.566Z,101784.47
2023-02-19T14:28:21.293Z,101783.41
2023-02-19T14:30:59.149Z,101786.53
2023-02-19T14:33:36.123Z,101788.94
2023-02-19T14:36:45.431Z,101800.78
2023-02-19T14:39:37.895Z,101787.00
2023-02-19T14:42:33.615Z,101798.25
2023-02-19T14:45:06.459Z,101799.09
2023-02-19T14:47:35.905Z,101798.19
2023-02-19T14:50:27.417Z,101798.38
2023-02-19T14:53:02.483Z,101786.75
2023-02-19T14:55:42.929Z,101774.38
2023-02-19T14:58:32.828Z,101779.28
2023-02-19T15:01:00.195Z,101779.94
2023-02-19T15:03:37.164Z,101773.19
2023-02-19T15:06:12.179Z,101770.94
2023-02-19T15:08:48.227Z,101780.31
2023-02-19T15:11:27.210Z,101768.75
2023-02-19T15:14:04.646Z,101766.94
2023-02-19T15:16:36.376Z,101768.56
2023-02-19T15:19:09.320Z,101772.22
2023-02-19T15:21:45.165Z,101765.63
2023-02-19T15:24:15.929Z,101763.53
2023-02-19T15:26:48.305Z,101771.72
2023-02-19T15:29:24.031Z,101772.81
2023-02-19T15:31:52.336Z,101770.06
2023-02-19T15:34:31.133Z,101777.03
2023-02-19T15:37:07.074Z,101773.25
2023-02-19T15:39:42.754Z,101769.50
2023-02-19T15:42:17.554Z,101761.81
2023-02-19T15:44:53.600Z,101762.91
2023-02-19T15:47:27.731Z,101770.72
2023-02-19T15:50:09.036Z,101773.72
2023-02-19T15:52:36.035Z,101767.19
2023-02-19T15:55:31.624Z,101759.13
2023-02-19T15:58:20.472Z,101769.34
2023-02-19T16:00:58.413Z,101771.63
2023-02-19T16:03:27.857Z,101781.91
2023-02-19T16:06:16.760Z,101802.75
2023-02-19T16:09:05.789Z,101785.94
2023-02-19T16:11:48.389Z,101789.38
2023-02-19T16:14:37.399Z,101780.31
2023-02-19T16:17:10.673Z,101797.75
2023-02-19T16:19:52.920Z,101795.28
2023-02-19T16:22:26.704Z,101812.44
2023-02-19T16:25:05.931Z,101800.88
2023-02-19T16:27:40.281Z,101806.47
2023-02-19T16:30:14.994Z,101808.16
2023-02-19T16:32:42.138Z,101807.00
2023-02-19T16:35:42.399Z,101815.53
2023-02-19T16:38:17.459Z,101812.72
2023-02-19T16:40:56.273Z,101804.16
2023-02-19T16:43:42.061Z,101813.28
2023-02-19T16:46:15.246Z,101810.53
2023-02-19T16:48:42.364Z,101804.34
2023-02-19T16:51:18.193Z,101809.03
2023-02-19T16:53:45.113Z,101815.63
2023-02-19T16:56:18.863Z,101816.81
2023-02-19T16:58:45.725Z,101822.81
2023-02-19T17:01:15.466Z,101824.78
2023-02-19T17:03:42.772Z,101828.06
2023-02-19T17:06:11.141Z,101824.47
2023-02-19T17:08:40.888Z,101833.00
2023-02-19T17:11:16.123Z,101830.03
2023-02-19T17:13:45.866Z,101824.63
2023-02-19T17:16:27.309Z,101835.13
2023-02-19T17:18:55.230Z,101835.94
2023-02-19T17:21:28.256Z,101840.53
2023-02-19T17:24:00.355Z,101838.31
2023-02-19T17:26:34.293Z,101838.06
2023-02-19T17:29:04.598Z,101830.34
2023-02-19T17:31:32.259Z,101837.59
2023-02-19T17:34:08.632Z,101835.78
2023-02-19T17:36:35.683Z,101833.97
2023-02-19T17:39:04.790Z,101837.50
2023-02-19T17:41:31.839Z,101833.47
2023-02-19T17:43:59.040Z,101829.91
2023-02-19T17:46:27.485Z,101825.06
2023-02-19T17:48:55.060Z,101827.97
2023-02-19T17:51:26.568Z,101832.19
2023-02-19T17:53:53.759Z,101829.38
2023-02-19T17:56:26.236Z,101827.31
2023-02-19T17:58:59.651Z,101835.22
2023-02-19T18:01:29.353Z,101838.13
2023-02-19T18:03:56.439Z,101843.53
2023-02-19T18:06:23.613Z,101854.16
2023-02-19T18:08:53.343Z,101851.16
2023-02-19T18:11:24.031Z,101851.44
2023-02-19T18:13:52.189Z,101855.50
2023-02-19T18:16:19.884Z,101859.47
2023-02-19T18:18:49.282Z,101863.88
2023-02-19T18:21:16.259Z,101867.28
2023-02-19T18:23:43.317Z,101854.16
2023-02-19T18:26:11.430Z,101858.91
2023-02-19T18:28:41.820Z,101859.50
2023-02-19T18:31:14.842Z,101867.16
2023-02-19T18:33:42.260Z,101862.31
2023-02-19T18:36:12.862Z,101870.00
2023-02-19T18:38:39.977Z,101873.81
2023-02-19T18:41:14.844Z,101875.47
2023-02-19T18:43:42.124Z,101878.63
2023-02-19T18:46:10.472Z,101879.75
2023-02-19T18:48:38.319Z,101866.91
2023-02-19T18:51:08.127Z,101875.97
2023-02-19T18:53:37.564Z,101868.88
2023-02-19T18:56:09.075Z,101863.53
2023-02-19T18:58:36.270Z,101861.75
2023-02-19T19:01:03.358Z,101864.69
2023-02-19T19:03:31.732Z,101854.59
2023-02-19T19:06:01.210Z,101855.66
2023-02-19T19:08:32.939Z,101854.22
2023-02-19T19:10:59.869Z,101850.81
2023-02-19T19:13:29.490Z,101856.00
2023-02-19T19:15:56.416Z,101846.28
2023-02-19T19:18:26.353Z,101842.00
2023-02-19T19:20:56.585Z,101844.59
2023-02-19T19:23:25.675Z,101842.31
2023-02-19T19:25:57.027Z,101840.69
2023-02-19T19:28:24.233Z,101840.91
2023-02-19T19:30:51.304Z,101845.56
2023-02-19T19:33:22.964Z,101836.75
2023-02-19T19:35:50.050Z,101827.66
2023-02-19T19:38:17.298Z,101834.03
2023-02-19T19:40:45.236Z,101827.56
2023-02-19T19:43:13.716Z,101820.34
2023-02-19T19:45:41.981Z,101820.59
2023-02-19T19:48:10.088Z,101823.34
2023-02-19T19:50:40.800Z,101811.25
2023-02-19T19:53:10.204Z,101813.66
2023-02-19T19:55:37.260Z,101808.59
2023-02-19T19:58:04.413Z,101808.38
2023-02-19T20:00:32.547Z,101806.56
2023-02-19T20:03:02.918Z,101806.44
2023-02-19T20:05:33.221Z,101811.72
2023-02-19T20:08:02.911Z,101815.16
2023-02-19T20:10:30.297Z,101820.56
2023-02-19T20:13:00.166Z,101821.06
2023-02-19T20:15:35.091Z,101831.00
2023-02-19T20:18:04.705Z,101836.66
2023-02-19T20:20:34.293Z,101838.59
2023-02-19T20:23:04.144Z,101838.72
2023-02-19T20:25:31.507Z,101848.41
2023-02-19T20:27:59.072Z,101845.22
2023-02-19T20:30:28.398Z,101837.75
2023-02-19T20:32:55.676Z,101828.19
2023-02-19T20:35:26.467Z,101828.03
2023-02-19T20:37:56.404Z,101819.94
2023-02-19T20:40:33.595Z,101817.75
2023-02-19T20:43:05.419Z,101808.91
2023-02-19T20:45:35.127Z,101809.16
2023-02-19T20:48:02.231Z,101811.09
2023-02-19T20:50:29.410Z,101807.38
2023-02-19T20:52:56.642Z,101809.34
2023-02-19T20:55:26.446Z,101799.78
2023-02-19T20:57:53.975Z,101797.97
2023-02-19T21:00:21.824Z,101801.22
2023-02-19T21:02:49.123Z,101808.94
2023-02-19T21:05:18.019Z,101793.38
2023-02-19T21:07:44.977Z,101792.91
2023-02-19T21:10:17.127Z,101797.66
2023-02-19T21:12:44.620Z,101800.72
2023-02-19T21:15:11.848Z,101806.03
2023-02-19T21:17:44.746Z,101807.84
2023-02-19T21:20:15.138Z,101805.13
2023-02-19T21:22:45.503Z,101816.59
2023-02-19T21:25:20.202Z,101810.25
2023-02-19T21:27:47.186Z,101802.94
2023-02-19T21:30:16.707Z,101796.03
2023-02-19T21:32:46.099Z,101792.31
2023-02-19T21:35:15.227Z,101798.03
2023-02-19T21:37:43.611Z,101786.91
2023-02-19T21:40:12.817Z,101806.81
2023-02-19T21:42:42.233Z,101798.97
2023-02-19T21:45:09.452Z,101806.56
2023-02-19T21:47:36.445Z,101812.75
2023-02-19T21:50:06.184Z,101810.25
2023-02-19T21:52:33.158Z,101802.78
2023-02-19T21:55:00.062Z,101805.03
2023-02-19T21:57:27.144Z,101799.31
2023-02-19T21:59:54.584Z,101805.97
2023-02-19T22:02:22.386Z,101807.44
2023-02-19T22:04:54.169Z,101791.41
2023-02-19T22:07:24.687Z,101789.13
2023-02-19T22:09:52.448Z,101784.81
2023-02-19T22:12:20.252Z,101776.84
2023-02-19T22:14:49.558Z,101773.19
2023-02-19T22:17:16.715Z,101761.09
2023-02-19T22:19:45.700Z,101764.94
2023-02-19T22:22:12.732Z,101758.47
2023-02-19T22:24:39.588Z,101750.69
2023-02-19T22:27:06.491Z,101742.03
2023-02-19T22:29:34.030Z,101752.56
2023-02-19T22:32:01.356Z,101744.63
2023-02-19T22:34:28.569Z,101742.81
2023-02-19T22:36:55.505Z,101739.25
2023-02-19T22:39:26.159Z,101735.63
2023-02-19T22:41:54.193Z,101743.75
2023-02-19T22:44:21.089Z,101734.59
2023-02-19T22:46:58.666Z,101738.53
2023-02-19T22:49:25.544Z,101727.03
2023-02-19T22:52:01.743Z,101723.69
2023-02-19T22:54:28.831Z,101726.44
2023-02-19T22:56:56.088Z,101733.56
2023-02-19T22:59:23.420Z,101737.00
2023-02-19T23:01:50.674Z,101727.56
2023-02-19T23:04:17.803Z,101723.88
2023-02-19T23:06:45.718Z,101732.09
2023-02-19T23:09:26.112Z,101737.75
2023-02-19T23:11:53.956Z,101736.91
2023-02-19T23:14:22.698Z,101739.72
2023-02-19T23:16:52.488Z,101737.75
2023-02-19T23:19:21.612Z,101727.84
2023-02-19T23:21:51.263Z,101734.56
2023-02-19T23:24:18.877Z,101736.78
2023-02-19T23:26:49.543Z,101738.28
2023-02-19T23:29:23.798Z,101730.75
2023-02-19T23:31:54.931Z,101726.09
2023-02-19T23:34:26.783Z,101719.84
2023-02-19T23:36:56.229Z,101706.59
2023-02-19T23:39:26.052Z,101695.97
2023-02-19T23:41:56.538Z,101688.59
2023-02-19T23:44:25.555Z,101688.50
2023-02-19T23:46:52.980Z,101687.28
2023-02-19T23:49:23.108Z,101683.59
2023-02-19T23:51:50.060Z,101679.66
2023-02-19T23:54:17.059Z,101679.66
2023-02-19T23:56:44.135Z,101674.78
2023-02-19T23:59:12.039Z,101681.63
